sensor_id;sensor_type;location;lat;lon;timestamp;pressure;altitude;pressure_sealevel;temperature;humidity
76434;BME280;65265;53.200;6.080;2023-09-12T00:01:27;101292.31;;;19.10;100.00
76434;BME280;65265;53.200;6.080;2023-09-12T00:06:22;101291.44;;;19.08;100.00
76434;BME280;65265;53.200;6.080;2023-09-12T00:11:14;101294.81;;;19.04;100.00
76434;BME280;65265;53.200;6.080;2023-09-12T00:16:08;101286.16;;;19.00;100.00
76434;BME280;65265;53.200;6.080;2023-09-12T00:21:01;101290.34;;;18.94;100.00
76434;BME280;65265;53.200;6.080;2023-09-12T00:25:53;101286.03;;;18.91;100.00
76434;BME280;65265;53.200;6.080;2023-09-12T00:30:44;101275.59;;;18.87;100.00
76434;BME280;65265;53.200;6.080;2023-09-12T00:35:37;101256.44;;;18.77;100.00
76434;BME280;65265;53.200;6.080;2023-09-12T00:40:29;101282.41;;;18.82;100.00
76434;BME280;65265;53.200;6.080;2023-09-12T00:45:21;101288.38;;;18.76;100.00
76434;BME280;65265;53.200;6.080;2023-09-12T00:50:13;101283.22;;;18.75;100.00
76434;BME280;65265;53.200;6.080;2023-09-12T00:55:07;101284.91;;;18.73;100.00
76434;BME280;65265;53.200;6.080;2023-09-12T01:00:02;101277.13;;;18.73;100.00
76434;BME280;65265;53.200;6.080;2023-09-12T01:05:01;101269.31;;;18.70;100.00
76434;BME280;65265;53.200;6.080;2023-09-12T01:09:53;101265.00;;;18.70;100.00
76434;BME280;65265;53.200;6.080;2023-09-12T01:14:46;101263.22;;;18.66;100.00
76434;BME280;65265;53.200;6.080;2023-09-12T01:19:38;101260.59;;;18.65;100.00
76434;BME280;65265;53.200;6.080;2023-09-12T01:24:52;101265.75;;;18.63;100.00
76434;BME280;65265;53.200;6.080;2023-09-12T01:29:53;101244.16;;;18.61;100.00
76434;BME280;65265;53.200;6.080;2023-09-12T01:34:47;101255.41;;;18.62;100.00
76434;BME280;65265;53.200;6.080;2023-09-12T01:39:39;101230.03;;;18.40;100.00
76434;BME280;65265;53.200;6.080;2023-09-12T01:44:31;101269.91;;;18.51;100.00
76434;BME280;65265;53.200;6.080;2023-09-12T01:49:28;101262.84;;;18.42;100.00
76434;BME280;65265;53.200;6.080;2023-09-12T01:54:21;101263.63;;;18.37;100.00
76434;BME280;65265;53.200;6.080;2023-09-12T01:59:13;101255.78;;;18.31;100.00
76434;BME280;65265;53.200;6.080;2023-09-12T02:04:04;101255.66;;;18.23;100.00
76434;BME280;65265;53.200;6.080;2023-09-12T02:09:00;101259.78;;;18.14;100.00
76434;BME280;65265;53.200;6.080;2023-09-12T02:13:52;101257.09;;;18.06;100.00
76434;BME280;65265;53.200;6.080;2023-09-12T02:18:43;101265.53;;;17.96;100.00
76434;BME280;65265;53.200;6.080;2023-09-12T02:23:35;101256.78;;;17.87;100.00
76434;BME280;65265;53.200;6.080;2023-09-12T02:28:28;101259.22;;;17.79;100.00
76434;BME280;65265;53.200;6.080;2023-09-12T02:33:20;101257.38;;;17.72;100.00
76434;BME280;65265;53.200;6.080;2023-09-12T02:38:11;101257.28;;;17.68;100.00
76434;BME280;65265;53.200;6.080;2023-09-12T02:43:03;101258.09;;;17.65;100.00
76434;BME280;65265;53.200;6.080;2023-09-12T02:47:57;101267.63;;;17.66;100.00
76434;BME280;65265;53.200;6.080;2023-09-12T02:52:48;101262.38;;;17.62;100.00
76434;BME280;65265;53.200;6.080;2023-09-12T02:57:40;101258.03;;;17.61;100.00
76434;BME280;65265;53.200;6.080;2023-09-12T03:02:31;101274.34;;;17.57;100.00
76434;BME280;65265;53.200;6.080;2023-09-12T03:07:24;101265.63;;;17.52;100.00
76434;BME280;65265;53.200;6.080;2023-09-12T03:12:16;101260.31;;;17.46;100.00
76434;BME280;65265;53.200;6.080;2023-09-12T03:17:07;101257.66;;;17.41;100.00
76434;BME280;65265;53.200;6.080;2023-09-12T03:21:59;101254.13;;;17.38;100.00
76434;BME280;65265;53.200;6.080;2023-09-12T03:26:52;101255.91;;;17.39;100.00
76434;BME280;65265;53.200;6.080;2023-09-12T03:31:44;101259.41;;;17.42;100.00
76434;BME280;65265;53.200;6.080;2023-09-12T03:36:35;101265.53;;;17.47;100.00
76434;BME280;65265;53.200;6.080;2023-09-12T03:41:27;101263.03;;;17.52;100.00
76434;BME280;65265;53.200;6.080;2023-09-12T03:46:20;101253.59;;;17.54;100.00
76434;BME280;65265;53.200;6.080;2023-09-12T03:51:12;101251.06;;;17.57;100.00
76434;BME280;65265;53.200;6.080;2023-09-12T03:56:04;101249.41;;;17.60;100.00
76434;BME280;65265;53.200;6.080;2023-09-12T04:00:56;101254.63;;;17.63;100.00
76434;BME280;65265;53.200;6.080;2023-09-12T04:05:50;101251.19;;;17.64;100.00
76434;BME280;65265;53.200;6.080;2023-09-12T04:10:41;101252.91;;;17.64;100.00
76434;BME280;65265;53.200;6.080;2023-09-12T04:15:33;101258.09;;;17.64;100.00
76434;BME280;65265;53.200;6.080;2023-09-12T04:20:25;101255.50;;;17.64;100.00
76434;BME280;65265;53.200;6.080;2023-09-12T04:25:18;101253.75;;;17.63;100.00
76434;BME280;65265;53.200;6.080;2023-09-12T04:30:11;101247.75;;;17.65;100.00
76434;BME280;65265;53.200;6.080;2023-09-12T04:35:03;101240.03;;;17.67;100.00
76434;BME280;65265;53.200;6.080;2023-09-12T04:39:55;101232.25;;;17.67;100.00
76434;BME280;65265;53.200;6.080;2023-09-12T04:44:48;101221.88;;;17.65;100.00
76434;BME280;65265;53.200;6.080;2023-09-12T04:49:41;101222.78;;;17.66;100.00
76434;BME280;65265;53.200;6.080;2023-09-12T04:54:33;101220.16;;;17.64;100.00
76434;BME280;65265;53.200;6.080;2023-09-12T04:59:24;101220.97;;;17.62;100.00
76434;BME280;65265;53.200;6.080;2023-09-12T05:04:17;101221.84;;;17.62;100.00
76434;BME280;65265;53.200;6.080;2023-09-12T05:09:10;101228.75;;;17.62;100.00
76434;BME280;65265;53.200;6.080;2023-09-12T05:14:01;101231.25;;;17.59;100.00
76434;BME280;65265;53.200;6.080;2023-09-12T05:18:53;101224.34;;;17.58;100.00
76434;BME280;65265;53.200;6.080;2023-09-12T05:23:46;101232.09;;;17.56;100.00
76434;BME280;65265;53.200;6.080;2023-09-12T05:28:38;101229.47;;;17.55;100.00
76434;BME280;65265;53.200;6.080;2023-09-12T05:33:29;101232.88;;;17.52;100.00
76434;BME280;65265;53.200;6.080;2023-09-12T05:38:21;101236.28;;;17.50;100.00
76434;BME280;65265;53.200;6.080;2023-09-12T05:43:14;101241.41;;;17.48;100.00
76434;BME280;65265;53.200;6.080;2023-09-12T05:48:06;101249.94;;;17.43;100.00
76434;BME280;65265;53.200;6.080;2023-09-12T05:52:59;101254.22;;;17.41;100.00
76434;BME280;65265;53.200;6.080;2023-09-12T05:57:51;101268.88;;;17.42;100.00
76434;BME280;65265;53.200;6.080;2023-09-12T06:02:44;101267.19;;;17.44;100.00
76434;BME280;65265;53.200;6.080;2023-09-12T06:07:37;101267.25;;;17.47;100.00
76434;BME280;65265;53.200;6.080;2023-09-12T06:12:29;101216.06;;;17.31;100.00
76434;BME280;65265;53.200;6.080;2023-09-12T06:17:23;101255.34;;;17.55;100.00
76434;BME280;65265;53.200;6.080;2023-09-12T06:22:16;101256.25;;;17.58;100.00
76434;BME280;65265;53.200;6.080;2023-09-12T06:27:08;101269.28;;;17.63;100.00
76434;BME280;65265;53.200;6.080;2023-09-12T06:31:59;101256.34;;;17.64;100.00
76434;BME280;65265;53.200;6.080;2023-09-12T06:36:52;101272.09;;;17.75;100.00
76434;BME280;65265;53.200;6.080;2023-09-12T06:41:45;101256.53;;;17.72;100.00
76434;BME280;65265;53.200;6.080;2023-09-12T06:46:37;101272.38;;;17.91;100.00
76434;BME280;65265;53.200;6.080;2023-09-12T06:51:28;101283.69;;;17.98;100.00
76434;BME280;65265;53.200;6.080;2023-09-12T06:56:20;101262.94;;;17.95;100.00
76434;BME280;65265;53.200;6.080;2023-09-12T07:01:14;101274.34;;;18.07;100.00
76434;BME280;65265;53.200;6.080;2023-09-12T07:06:06;101272.72;;;18.12;100.00
76434;BME280;65265;53.200;6.080;2023-09-12T07:10:58;101278.00;;;18.17;100.00
76434;BME280;65265;53.200;6.080;2023-09-12T07:15:56;101266.72;;;18.15;100.00
76434;BME280;65265;53.200;6.080;2023-09-12T07:20:58;101266.84;;;18.24;100.00
76434;BME280;65265;53.200;6.080;2023-09-12T07:25:49;101260.09;;;18.29;100.00
76434;BME280;65265;53.200;6.080;2023-09-12T07:30:45;101268.88;;;18.40;100.00
76434;BME280;65265;53.200;6.080;2023-09-12T07:35:37;101271.72;;;18.58;100.00
76434;BME280;65265;53.200;6.080;2023-09-12T07:40:30;101287.56;;;18.79;100.00
76434;BME280;65265;53.200;6.080;2023-09-12T07:45:21;101288.63;;;18.93;100.00
76434;BME280;65265;53.200;6.080;2023-09-12T07:50:13;101304.28;;;19.00;100.00
76434;BME280;65265;53.200;6.080;2023-09-12T07:55:06;101300.03;;;19.05;100.00
76434;BME280;65265;53.200;6.080;2023-09-12T08:00:00;101290.63;;;19.15;100.00
76434;BME280;65265;53.200;6.080;2023-09-12T08:04:54;101303.13;;;19.43;100.00
76434;BME280;65265;53.200;6.080;2023-09-12T08:09:50;101309.34;;;19.59;100.00
76434;BME280;65265;53.200;6.080;2023-09-12T08:14:42;101306.84;;;19.68;100.00
76434;BME280;65265;53.200;6.080;2023-09-12T08:19:36;101306.94;;;19.74;100.00
76434;BME280;65265;53.200;6.080;2023-09-12T08:24:28;101318.22;;;19.79;100.00
76434;BME280;65265;53.200;6.080;2023-09-12T08:29:20;101335.56;;;19.85;100.00
76434;BME280;65265;53.200;6.080;2023-09-12T08:34:11;101329.56;;;19.90;100.00
76434;BME280;65265;53.200;6.080;2023-09-12T08:39:05;101333.09;;;19.97;100.00
76434;BME280;65265;53.200;6.080;2023-09-12T08:43:58;101343.63;;;20.07;100.00
76434;BME280;65265;53.200;6.080;2023-09-12T08:48:50;101353.19;;;20.11;100.00
76434;BME280;65265;53.200;6.080;2023-09-12T08:53:42;101351.53;;;20.19;100.00
76434;BME280;65265;53.200;6.080;2023-09-12T08:58:35;101353.34;;;20.29;100.00
76434;BME280;65265;53.200;6.080;2023-09-12T09:03:28;101342.22;;;20.44;100.00
76434;BME280;65265;53.200;6.080;2023-09-12T09:08:21;101340.63;;;20.62;100.00
76434;BME280;65265;53.200;6.080;2023-09-12T09:13:14;101331.28;;;20.85;100.00
76434;BME280;65265;53.200;6.080;2023-09-12T09:18:07;101334.94;;;21.28;100.00
76434;BME280;65265;53.200;6.080;2023-09-12T09:23:00;101323.78;;;21.51;100.00
76434;BME280;65265;53.200;6.080;2023-09-12T09:27:55;101336.91;;;21.86;100.00
76434;BME280;65265;53.200;6.080;2023-09-12T09:32:46;101316.91;;;21.88;100.00
76434;BME280;65265;53.200;6.080;2023-09-12T09:37:39;101321.31;;;22.11;100.00
76434;BME280;65265;53.200;6.080;2023-09-12T09:42:31;101331.75;;;22.39;100.00
76434;BME280;65265;53.200;6.080;2023-09-12T09:47:23;101334.34;;;22.68;100.00
76434;BME280;65265;53.200;6.080;2023-09-12T09:52:14;101330.84;;;22.84;100.00
76434;BME280;65265;53.200;6.080;2023-09-12T09:57:08;101326.47;;;22.93;100.00
76434;BME280;65265;53.200;6.080;2023-09-12T10:01:59;101326.47;;;22.93;100.00
76434;BME280;65265;53.200;6.080;2023-09-12T10:06:55;101335.09;;;23.19;100.00
76434;BME280;65265;53.200;6.080;2023-09-12T10:11:50;101329.81;;;23.36;100.00
76434;BME280;65265;53.200;6.080;2023-09-12T10:16:45;101331.50;;;23.50;100.00
76434;BME280;65265;53.200;6.080;2023-09-12T10:21:41;101331.53;;;23.43;100.00
76434;BME280;65265;53.200;6.080;2023-09-12T10:26:37;101329.81;;;23.39;100.00
76434;BME280;65265;53.200;6.080;2023-09-12T10:31:34;101334.06;;;23.59;100.00
76434;BME280;65265;53.200;6.080;2023-09-12T10:36:28;101334.84;;;23.75;100.00
76434;BME280;65265;53.200;6.080;2023-09-12T10:41:21;101332.19;;;23.82;100.00
76434;BME280;65265;53.200;6.080;2023-09-12T10:46:14;101318.22;;;23.91;100.00
76434;BME280;65265;53.200;6.080;2023-09-12T10:51:06;101326.00;;;24.01;100.00
76434;BME280;65265;53.200;6.080;2023-09-12T10:56:01;101318.16;;;24.00;100.00
76434;BME280;65265;53.200;6.080;2023-09-12T11:01:23;101333.84;;;24.00;98.82
76434;BME280;65265;53.200;6.080;2023-09-12T11:06:24;101339.97;;;23.96;100.00
76434;BME280;65265;53.200;6.080;2023-09-12T11:11:20;101341.63;;;24.09;99.64
76434;BME280;65265;53.200;6.080;2023-09-12T11:16:13;101338.94;;;24.15;97.56
76434;BME280;65265;53.200;6.080;2023-09-12T11:21:07;101331.06;;;24.22;98.00
76434;BME280;65265;53.200;6.080;2023-09-12T11:26:03;101341.66;;;24.06;97.26
76434;BME280;65265;53.200;6.080;2023-09-12T11:30:57;101339.16;;;23.88;96.19
76434;BME280;65265;53.200;6.080;2023-09-12T11:35:52;101343.56;;;23.72;100.00
76434;BME280;65265;53.200;6.080;2023-09-12T11:40:44;101347.13;;;23.58;99.65
76434;BME280;65265;53.200;6.080;2023-09-12T11:45:42;101342.75;;;23.63;100.00
76434;BME280;65265;53.200;6.080;2023-09-12T11:50:36;101339.84;;;24.11;100.00
76434;BME280;65265;53.200;6.080;2023-09-12T11:55:31;101341.28;;;24.51;100.00
76434;BME280;65265;53.200;6.080;2023-09-12T12:00:23;101349.22;;;24.36;100.00
76434;BME280;65265;53.200;6.080;2023-09-12T12:05:16;101352.94;;;24.06;100.00
76434;BME280;65265;53.200;6.080;2023-09-12T12:10:09;101351.34;;;23.86;100.00
76434;BME280;65265;53.200;6.080;2023-09-12T12:15:01;101348.75;;;23.78;100.00
76434;BME280;65265;53.200;6.080;2023-09-12T12:19:52;101346.16;;;23.77;100.00
76434;BME280;65265;53.200;6.080;2023-09-12T12:24:45;101353.16;;;23.69;100.00
76434;BME280;65265;53.200;6.080;2023-09-12T12:29:38;101346.31;;;23.50;97.41
76434;BME280;65265;53.200;6.080;2023-09-12T12:34:31;101338.53;;;23.35;97.75
76434;BME280;65265;53.200;6.080;2023-09-12T12:39:22;101341.19;;;23.23;99.75
76434;BME280;65265;53.200;6.080;2023-09-12T12:44:14;101330.75;;;23.11;100.00
76434;BME280;65265;53.200;6.080;2023-09-12T12:49:14;101323.78;;;23.25;100.00
76434;BME280;65265;53.200;6.080;2023-09-12T12:54:06;101322.75;;;23.54;98.95
76434;BME280;65265;53.200;6.080;2023-09-12T12:58:59;101320.06;;;23.74;94.69
76434;BME280;65265;53.200;6.080;2023-09-12T13:03:53;101315.50;;;24.03;93.44
76434;BME280;65265;53.200;6.080;2023-09-12T13:08:48;101310.38;;;23.91;94.46
76434;BME280;65265;53.200;6.080;2023-09-12T13:13:40;101295.31;;;24.23;99.19
76434;BME280;65265;53.200;6.080;2023-09-12T13:18:33;101301.28;;;24.38;91.18
76434;BME280;65265;53.200;6.080;2023-09-12T13:23:24;101296.50;;;24.83;95.09
76434;BME280;65265;53.200;6.080;2023-09-12T13:28:18;101305.81;;;25.07;83.69
76434;BME280;65265;53.200;6.080;2023-09-12T13:33:09;101304.97;;;25.03;90.06
76434;BME280;65265;53.200;6.080;2023-09-12T13:38:01;101305.94;;;24.95;88.53
76434;BME280;65265;53.200;6.080;2023-09-12T13:42:54;101304.13;;;25.01;85.29
76434;BME280;65265;53.200;6.080;2023-09-12T13:47:47;101294.78;;;24.81;84.02
76434;BME280;65265;53.200;6.080;2023-09-12T13:52:38;101301.91;;;24.66;91.57
76434;BME280;65265;53.200;6.080;2023-09-12T13:57:29;101301.16;;;24.55;89.46
76434;BME280;65265;53.200;6.080;2023-09-12T14:02:21;101310.00;;;24.39;88.77
76434;BME280;65265;53.200;6.080;2023-09-12T14:07:15;101304.00;;;24.25;92.92
76434;BME280;65265;53.200;6.080;2023-09-12T14:12:07;101311.97;;;24.10;91.71
76434;BME280;65265;53.200;6.080;2023-09-12T14:16:59;101325.09;;;24.04;97.27
76434;BME280;65265;53.200;6.080;2023-09-12T14:21:50;101326.84;;;24.02;95.42
76434;BME280;65265;53.200;6.080;2023-09-12T14:26:43;101325.22;;;23.80;97.83
76434;BME280;65265;53.200;6.080;2023-09-12T14:31:35;101327.97;;;23.60;98.34
76434;BME280;65265;53.200;6.080;2023-09-12T14:36:27;101317.59;;;23.45;99.12
76434;BME280;65265;53.200;6.080;2023-09-12T14:41:18;101322.03;;;23.30;99.26
76434;BME280;65265;53.200;6.080;2023-09-12T14:46:11;101326.41;;;23.23;99.47
76434;BME280;65265;53.200;6.080;2023-09-12T14:51:03;101317.66;;;23.30;100.00
76434;BME280;65265;53.200;6.080;2023-09-12T14:55:54;101316.78;;;23.27;100.00
76434;BME280;65265;53.200;6.080;2023-09-12T15:00:46;101315.09;;;23.20;98.66
76434;BME280;65265;53.200;6.080;2023-09-12T15:05:39;101318.59;;;23.19;100.00
76434;BME280;65265;53.200;6.080;2023-09-12T15:10:30;101320.34;;;23.15;100.00
76434;BME280;65265;53.200;6.080;2023-09-12T15:15:22;101316.81;;;23.10;100.00
76434;BME280;65265;53.200;6.080;2023-09-12T15:20:13;101325.56;;;22.99;100.00
76434;BME280;65265;53.200;6.080;2023-09-12T15:25:08;101323.03;;;22.84;100.00
76434;BME280;65265;53.200;6.080;2023-09-12T15:30:00;101329.97;;;22.76;100.00
76434;BME280;65265;53.200;6.080;2023-09-12T15:34:51;101331.72;;;22.63;100.00
76434;BME280;65265;53.200;6.080;2023-09-12T15:39:43;101330.00;;;22.64;100.00
76434;BME280;65265;53.200;6.080;2023-09-12T15:44:36;101318.69;;;22.74;100.00
76434;BME280;65265;53.200;6.080;2023-09-12T15:49:27;101305.59;;;22.90;100.00
76434;BME280;65265;53.200;6.080;2023-09-12T15:54:20;101307.31;;;22.97;99.70
76434;BME280;65265;53.200;6.080;2023-09-12T15:59:11;101304.75;;;22.87;98.65
76434;BME280;65265;53.200;6.080;2023-09-12T16:04:05;101314.34;;;22.77;99.79
76434;BME280;65265;53.200;6.080;2023-09-12T16:08:57;101301.31;;;22.49;100.00
76434;BME280;65265;53.200;6.080;2023-09-12T16:13:48;101310.03;;;22.45;100.00
76434;BME280;65265;53.200;6.080;2023-09-12T16:18:40;101311.72;;;22.37;100.00
76434;BME280;65265;53.200;6.080;2023-09-12T16:23:34;101314.34;;;22.13;100.00
76434;BME280;65265;53.200;6.080;2023-09-12T16:28:27;101309.13;;;22.16;100.00
76434;BME280;65265;53.200;6.080;2023-09-12T16:33:18;101306.53;;;22.25;100.00
76434;BME280;65265;53.200;6.080;2023-09-12T16:38:10;101308.28;;;22.18;100.00
76434;BME280;65265;53.200;6.080;2023-09-12T16:43:03;101303.06;;;22.04;100.00
76434;BME280;65265;53.200;6.080;2023-09-12T16:47:55;101299.59;;;21.85;100.00
76434;BME280;65265;53.200;6.080;2023-09-12T16:52:47;101314.22;;;21.50;100.00
76434;BME280;65265;53.200;6.080;2023-09-12T16:57:38;101316.78;;;21.47;100.00
76434;BME280;65265;53.200;6.080;2023-09-12T17:02:31;101322.78;;;21.25;100.00
76434;BME280;65265;53.200;6.080;2023-09-12T17:07:25;101321.84;;;21.05;100.00
76434;BME280;65265;53.200;6.080;2023-09-12T17:12:16;101329.59;;;20.96;100.00
76434;BME280;65265;53.200;6.080;2023-09-12T17:17:08;101326.00;;;20.79;100.00
76434;BME280;65265;53.200;6.080;2023-09-12T17:22:01;101326.75;;;20.62;100.00
76434;BME280;65265;53.200;6.080;2023-09-12T17:26:53;101329.28;;;20.53;100.00
76434;BME280;65265;53.200;6.080;2023-09-12T17:31:45;101337.81;;;20.37;100.00
76434;BME280;65265;53.200;6.080;2023-09-12T17:36:36;101345.56;;;20.32;100.00
76434;BME280;65265;53.200;6.080;2023-09-12T17:41:29;101353.34;;;20.28;100.00
76434;BME280;65265;53.200;6.080;2023-09-12T17:46:21;101359.38;;;20.25;100.00
76434;BME280;65265;53.200;6.080;2023-09-12T17:51:12;101361.91;;;20.18;100.00
76434;BME280;65265;53.200;6.080;2023-09-12T17:56:04;101367.09;;;20.18;100.00
76434;BME280;65265;53.200;6.080;2023-09-12T18:00:57;101378.28;;;20.09;100.00
76434;BME280;65265;53.200;6.080;2023-09-12T18:05:49;101372.16;;;20.04;100.00
76434;BME280;65265;53.200;6.080;2023-09-12T18:10:40;101363.38;;;19.95;100.00
76434;BME280;65265;53.200;6.080;2023-09-12T18:15:32;101365.00;;;19.87;100.00
76434;BME280;65265;53.200;6.080;2023-09-12T18:20:25;101367.47;;;19.73;100.00
76434;BME280;65265;53.200;6.080;2023-09-12T18:25:17;101362.22;;;19.67;100.00
76434;BME280;65265;53.200;6.080;2023-09-12T18:30:09;101358.66;;;19.58;100.00
76434;BME280;65265;53.200;6.080;2023-09-12T18:35:01;101376.72;;;19.52;100.00
76434;BME280;65265;53.200;6.080;2023-09-12T18:39:56;101381.06;;;19.52;100.00
76434;BME280;65265;53.200;6.080;2023-09-12T18:44:48;101388.75;;;19.46;100.00
76434;BME280;65265;53.200;6.080;2023-09-12T18:49:39;101386.03;;;19.37;100.00
76434;BME280;65265;53.200;6.080;2023-09-12T18:54:31;101391.16;;;19.31;100.00
76434;BME280;65265;53.200;6.080;2023-09-12T18:59:25;101393.69;;;19.26;100.00
76434;BME280;65265;53.200;6.080;2023-09-12T19:04:24;101392.81;;;19.26;100.00
76434;BME280;65265;53.200;6.080;2023-09-12T19:09:15;101393.66;;;19.25;100.00
76434;BME280;65265;53.200;6.080;2023-09-12T19:14:07;101393.66;;;19.23;100.00
76434;BME280;65265;53.200;6.080;2023-09-12T19:19:00;101389.25;;;19.18;100.00
76434;BME280;65265;53.200;6.080;2023-09-12T19:23:51;101390.06;;;19.15;100.00
76434;BME280;65265;53.200;6.080;2023-09-12T19:28:43;101387.41;;;19.12;100.00
76434;BME280;65265;53.200;6.080;2023-09-12T19:33:35;101396.81;;;19.04;100.00
76434;BME280;65265;53.200;6.080;2023-09-12T19:38:28;101395.84;;;18.98;100.00
76434;BME280;65265;53.200;6.080;2023-09-12T19:43:20;101395.75;;;18.92;100.00
76434;BME280;65265;53.200;6.080;2023-09-12T19:48:12;101393.91;;;18.83;100.00
76434;BME280;65265;53.200;6.080;2023-09-12T19:53:03;101386.91;;;18.78;100.00
76434;BME280;65265;53.200;6.080;2023-09-12T19:57:57;101396.31;;;18.71;100.00
76434;BME280;65265;53.200;6.080;2023-09-12T20:02:48;101386.63;;;18.61;100.00
76434;BME280;65265;53.200;6.080;2023-09-12T20:07:40;101387.38;;;18.53;100.00
76434;BME280;65265;53.200;6.080;2023-09-12T20:12:32;101378.72;;;18.51;100.00
76434;BME280;65265;53.200;6.080;2023-09-12T20:17:25;101393.25;;;18.43;100.00
76434;BME280;65265;53.200;6.080;2023-09-12T20:22:16;101392.41;;;18.44;100.00
76434;BME280;65265;53.200;6.080;2023-09-12T20:27:08;101384.75;;;18.50;100.00
76434;BME280;65265;53.200;6.080;2023-09-12T20:32:00;101381.22;;;18.48;100.00
76434;BME280;65265;53.200;6.080;2023-09-12T20:36:53;101380.38;;;18.47;100.00
76434;BME280;65265;53.200;6.080;2023-09-12T20:41:46;101364.84;;;18.47;100.00
76434;BME280;65265;53.200;6.080;2023-09-12T20:46:38;101362.31;;;18.52;100.00
76434;BME280;65265;53.200;6.080;2023-09-12T20:51:29;101355.59;;;18.63;100.00
76434;BME280;65265;53.200;6.080;2023-09-12T20:56:22;101356.41;;;18.60;100.00
76434;BME280;65265;53.200;6.080;2023-09-12T21:01:14;101358.00;;;18.52;100.00
76434;BME280;65265;53.200;6.080;2023-09-12T21:06:05;101360.53;;;18.49;100.00
76434;BME280;65265;53.200;6.080;2023-09-12T21:10:57;101346.66;;;18.44;100.00
76434;BME280;65265;53.200;6.080;2023-09-12T21:15:50;101350.88;;;18.39;100.00
76434;BME280;65265;53.200;6.080;2023-09-12T21:20:41;101342.94;;;18.29;100.00
76434;BME280;65265;53.200;6.080;2023-09-12T21:25:38;101362.84;;;18.33;100.00
76434;BME280;65265;53.200;6.080;2023-09-12T21:30:29;101359.41;;;18.34;100.00
76434;BME280;65265;53.200;6.080;2023-09-12T21:35:22;101363.56;;;18.26;100.00
76434;BME280;65265;53.200;6.080;2023-09-12T21:40:14;101365.41;;;18.30;100.00
76434;BME280;65265;53.200;6.080;2023-09-12T21:45:07;101368.78;;;18.27;100.00
76434;BME280;65265;53.200;6.080;2023-09-12T21:50:03;101359.34;;;18.29;100.00
76434;BME280;65265;53.200;6.080;2023-09-12T21:54:57;101359.28;;;18.28;100.00
76434;BME280;65265;53.200;6.080;2023-09-12T21:59:48;101369.66;;;18.28;100.00
76434;BME280;65265;53.200;6.080;2023-09-12T22:04:40;101364.41;;;18.25;100.00
76434;BME280;65265;53.200;6.080;2023-09-12T22:09:32;101363.47;;;18.20;100.00
76434;BME280;65265;53.200;6.080;2023-09-12T22:14:25;101374.69;;;18.20;100.00
76434;BME280;65265;53.200;6.080;2023-09-12T22:19:16;101372.13;;;18.22;100.00
76434;BME280;65265;53.200;6.080;2023-09-12T22:24:08;101370.47;;;18.27;100.00
76434;BME280;65265;53.200;6.080;2023-09-12T22:28:59;101370.59;;;18.30;100.00
76434;BME280;65265;53.200;6.080;2023-09-12T22:33:52;101366.13;;;18.24;100.00
76434;BME280;65265;53.200;6.080;2023-09-12T22:38:43;101367.84;;;18.22;100.00
76434;BME280;65265;53.200;6.080;2023-09-12T22:43:35;101372.16;;;18.25;100.00
76434;BME280;65265;53.200;6.080;2023-09-12T22:48:27;101361.78;;;18.22;100.00
76434;BME280;65265;53.200;6.080;2023-09-12T22:53:21;101359.13;;;18.19;100.00
76434;BME280;65265;53.200;6.080;2023-09-12T22:58:13;101353.91;;;18.17;100.00
76434;BME280;65265;53.200;6.080;2023-09-12T23:03:05;101353.88;;;18.16;100.00
76434;BME280;65265;53.200;6.080;2023-09-12T23:07:56;101363.34;;;18.14;100.00
76434;BME280;65265;53.200;6.080;2023-09-12T23:12:49;101367.59;;;18.09;100.00
76434;BME280;65265;53.200;6.080;2023-09-12T23:17:40;101363.41;;;18.17;100.00
76434;BME280;65265;53.200;6.080;2023-09-12T23:22:32;101371.97;;;18.13;100.00
76434;BME280;65265;53.200;6.080;2023-09-12T23:27:24;101366.91;;;18.19;100.00
76434;BME280;65265;53.200;6.080;2023-09-12T23:32:17;101367.59;;;18.10;100.00
76434;BME280;65265;53.200;6.080;2023-09-12T23:37:08;101360.63;;;18.06;100.00
76434;BME280;65265;53.200;6.080;2023-09-12T23:42:00;101356.22;;;18.01;100.00
76434;BME280;65265;53.200;6.080;2023-09-12T23:46:52;101356.25;;;18.02;100.00
76434;BME280;65265;53.200;6.080;2023-09-12T23:51:46;101354.50;;;18.03;100.00
76434;BME280;65265;53.200;6.080;2023-09-12T23:56:37;101360.44;;;17.96;100.00
